Stolt Shearwater — ZCRD9 — position and weather

sailwx.info

Track history (hours):
 
Tides and Currents Weather Stations Pressure Air Temp Water Temp Dewpoint Dewpoint Depression Visibility Wind Speed Wind Dir Waves Ship Positions

Stolt Shearwater

Last reported at 2015-Jul-08 05:33 UTC. Time now 2015-Jul-08 06:31 UTC.
Position N 53°38' W 000°11'.

Length 96 m; draft 6.7 m.

Type: Ship (hazmat cat B). MMSI: 319402000.

Date/timePositionNaut miles runAvg speedWind from/ knotsBaromVisibWave heightAir tempDewpointWater temp
2015-Jul-08 05:33N 53°38' W 000°11'0 0.0
2015-Jul-08 04:33N 53°38' W 000°11'0 0.0
2015-Jul-08 03:33N 53°38' W 000°11'0 0.0
2015-Jul-08 02:33N 53°38' W 000°11'0 0.0
2015-Jul-08 01:33N 53°38' W 000°11'0 0.0
2015-Jul-08 00:33N 53°38' W 000°11'0 0.0
2015-Jul-07 23:33N 53°38' W 000°11'0 0.0
2015-Jul-07 22:33N 53°38' W 000°11'0 0.0
2015-Jul-07 21:27N 53°38' W 000°11'0 0.0
2015-Jul-07 20:33N 53°38' W 000°11'0 0.0
2015-Jul-07 19:30N 53°38' W 000°11'0 0.0
2015-Jul-07 18:33N 53°38' W 000°11'0 0.0
2015-Jul-07 17:33N 53°38' W 000°11'0 0.0
2015-Jul-07 16:33N 53°38' W 000°11'0 0.0
2015-Jul-07 15:33N 53°38' W 000°11'0 0.0
2015-Jul-07 14:33N 53°38' W 000°11'0 0.0
2015-Jul-07 13:33N 53°38' W 000°11'0 0.0
2015-Jul-07 12:33N 53°38' W 000°11'0 0.0
2015-Jul-07 11:33N 53°38' W 000°11'0 0.0
2015-Jul-07 10:33N 53°38' W 000°11'0 0.0
2015-Jul-07 09:33N 53°38' W 000°11'1 0.6
2015-Jul-07 08:33N 53°38' W 000°10'1111.5
2015-Jul-07 07:33N 53°34' E 000°07'7 7.5
2015-Jul-07 06:33N 53°33' E 000°20'6 5.8
2015-Jul-07 05:33N 53°31' E 000°29'38 7.7
2015-Jul-07 00:32N 53°08' E 001°20'9 8.8
2015-Jul-06 23:33N 53°01' E 001°30'8 8.1
2015-Jul-06 22:33N 52°55' E 001°39'8 8.1
2015-Jul-06 21:33N 52°50' E 001°49'9 9.4
2015-Jul-06 20:33N 52°45' E 002°02'1110.9
2015-Jul-06 19:33N 52°39' E 002°17'6810.7
2015-Jul-06 13:13N 52°03' E 003°52'6 9.8
2015-Jul-06 12:33N 52°00' E 004°01'8 1.9
2015-Jul-06 08:11N 51°56' E 004°12'0 0.0
2015-Jul-06 06:20N 51°56' E 004°12'0 0.0
2015-Jul-06 04:23N 51°56' E 004°12'0 0.0
2015-Jul-06 03:20N 51°56' E 004°12'0 0.0
2015-Jul-06 02:26N 51°56' E 004°12'0 0.0
2015-Jul-06 00:14N 51°56' E 004°12'0 0.0
2015-Jul-05 23:20N 51°56' E 004°12'0 0.0
2015-Jul-05 22:17N 51°56' E 004°12'0 0.0
2015-Jul-05 21:26N 51°56' E 004°12'0 0.0
2015-Jul-05 20:32N 51°56' E 004°12'0 0.0
2015-Jul-05 19:32N 51°56' E 004°12'0 0.0
2015-Jul-05 18:32N 51°56' E 004°12'0 0.0
2015-Jul-05 17:23N 51°56' E 004°12'0 0.0
2015-Jul-05 16:20N 51°56' E 004°12'0 0.0
2015-Jul-05 15:26N 51°56' E 004°12'0 0.0
2015-Jul-05 14:26N 51°56' E 004°12'0 0.0
2015-Jul-05 13:17N 51°56' E 004°12'0 0.0
2015-Jul-05 12:32N 51°56' E 004°12'0 0.0
2015-Jul-05 11:23N 51°56' E 004°12'0 0.2
2015-Jul-05 10:34N 51°56' E 004°12'9 8.8
2015-Jul-05 09:34N 51°60' E 003°59'9 9.1
2015-Jul-05 08:33N 51°58' E 003°45'5 4.5
2015-Jul-05 07:34N 51°57' E 003°38'5 4.7
2015-Jul-05 06:33N 51°55' E 003°31'4 3.6
2015-Jul-05 05:33N 51°56' E 003°25'4 4.4
2015-Jul-05 04:34N 51°56' E 003°17'6 5.6
2015-Jul-05 03:33N 51°54' E 003°09'6 5.7
2015-Jul-05 02:31N 51°54' E 002°59'9 9.3
2015-Jul-05 01:33N 51°51' E 002°45'1010.2
2015-Jul-05 00:33N 51°43' E 002°34'9 9.6
2015-Jul-04 23:33N 51°36' E 002°24'9 9.3
2015-Jul-04 22:33N 51°29' E 002°14'7 7.1
2015-Jul-04 21:33N 51°22' E 002°10'1111.3
2015-Jul-04 20:33N 51°23' E 002°28'1111.2
2015-Jul-04 19:32N 51°22' E 002°46'2210.9
2015-Jul-04 17:30N 51°25' E 003°21'9 9.7
2015-Jul-04 16:33N 51°26' E 003°36'12 9.2
2015-Jul-04 15:14N 51°22' E 003°54'5 7.6
2015-Jul-04 14:33N 51°26' E 003°58'8 6.3
2015-Jul-04 13:21N 51°23' E 004°10'6 7.2
2015-Jul-04 12:33N 51°19' E 004°16'3 3.3
2015-Jul-04 11:34N 51°16' E 004°17'1 0.8
2015-Jul-04 10:33N 51°16' E 004°15'0 0.0
2015-Jul-04 09:28N 51°16' E 004°15'0 0.0
2015-Jul-04 08:30N 51°16' E 004°15'0 0.0
2015-Jul-04 07:33N 51°16' E 004°15'0 0.0
2015-Jul-04 06:33N 51°16' E 004°15'0 0.0
2015-Jul-04 05:33N 51°16' E 004°15'0 0.0
2015-Jul-04 04:33N 51°16' E 004°15'0 0.1
2015-Jul-04 03:33N 51°16' E 004°15'0 0.0
2015-Jul-04 02:30N 51°16' E 004°15'0 0.0
2015-Jul-04 01:30N 51°16' E 004°15'0 0.0
2015-Jul-04 00:34N 51°16' E 004°15'0 0.0
2015-Jul-03 23:27N 51°16' E 004°15'0 0.0
2015-Jul-03 22:30N 51°16' E 004°15'0 0.0
2015-Jul-03 21:34N 51°16' E 004°15'0 0.0
2015-Jul-03 20:33N 51°16' E 004°15'0 0.0
2015-Jul-03 19:30N 51°16' E 004°15'0 0.0
2015-Jul-03 18:33N 51°16' E 004°15'0 0.0
2015-Jul-03 17:30N 51°16' E 004°15'0 0.0
2015-Jul-03 16:33N 51°16' E 004°15'0 0.0
2015-Jul-03 15:33N 51°16' E 004°15'0 0.0
2015-Jul-03 14:33N 51°16' E 004°15'1 0.8
2015-Jul-03 13:33N 51°16' E 004°17'2 1.7
2015-Jul-03 12:33N 51°17' E 004°19'1 0.6
2015-Jul-03 11:34N 51°17' E 004°20'2 1.8
2015-Jul-03 10:31N 51°15' E 004°21'0 0.0
2015-Jul-03 09:28N 51°15' E 004°21'0 0.0
2015-Jul-03 08:31N 51°15' E 004°21'0 0.0
2015-Jul-03 07:31N 51°15' E 004°21'0 0.0
2015-Jul-03 06:25N 51°15' E 004°21'0 0.0
2015-Jul-03 05:31N 51°15' E 004°21'0 0.0
2015-Jul-03 04:31N 51°15' E 004°21'0 0.0
2015-Jul-03 03:31N 51°15' E 004°21'0 0.0
2015-Jul-03 02:31N 51°15' E 004°21'0 0.0
2015-Jul-03 01:31N 51°15' E 004°21'0 0.0
2015-Jul-03 00:31N 51°15' E 004°21'0 0.0
2015-Jul-02 23:31N 51°15' E 004°21'0 0.0
2015-Jul-02 22:31N 51°15' E 004°21'0 0.0
2015-Jul-02 21:28N 51°15' E 004°21'0 0.0
2015-Jul-02 20:31N 51°15' E 004°21'0 0.0
2015-Jul-02 19:32N 51°15' E 004°21'0 0.3
2015-Jul-02 18:33N 51°15' E 004°22'6 6.3
2015-Jul-02 17:33N 51°21' E 004°17'0 0.4
2015-Jul-02 16:33N 51°21' E 004°16'6 5.9
2015-Jul-02 15:33N 51°22' E 004°07'7 6.5
2015-Jul-02 14:33N 51°23' E 003°57'10 9.8
2015-Jul-02 13:34N 51°24' E 003°41'1211.7
2015-Jul-02 12:33N 51°24' E 003°23'1313.2
2015-Jul-02 11:34N 51°24' E 003°01'1211.5
2015-Jul-02 10:34N 51°22' E 002°43'6 5.0
2015-Jul-02 09:24N 51°20' E 002°34'0 0.0
2015-Jul-02 08:15N 51°20' E 002°34'0 0.0
2015-Jul-02 07:24N 51°20' E 002°34'0 0.3
2015-Jul-02 06:29N 51°20' E 002°34'0 0.1
2015-Jul-02 05:17N 51°20' E 002°34'0 0.1
2015-Jul-02 04:32N 51°20' E 002°34'0 0.0
2015-Jul-02 03:20N 51°20' E 002°34'0 0.0
2015-Jul-02 02:29N 51°20' E 002°34'0 0.0
2015-Jul-02 00:29N 51°20' E 002°34'0 0.0
2015-Jul-01 23:23N 51°20' E 002°35'0 0.0
2015-Jul-01 22:29N 51°20' E 002°34'0 0.1
2015-Jul-01 21:11N 51°20' E 002°34'0 0.0
2015-Jul-01 20:29N 51°20' E 002°34'0 0.0
2015-Jul-01 19:20N 51°20' E 002°34'0 0.0
2015-Jul-01 18:29N 51°20' E 002°34'0 0.0
2015-Jul-01 17:32N 51°20' E 002°34'0 0.0
2015-Jul-01 16:23N 51°20' E 002°34'0 0.1
2015-Jul-01 15:26N 51°20' E 002°34'0 0.1
2015-Jul-01 14:29N 51°20' E 002°34'0 0.0
2015-Jul-01 13:29N 51°20' E 002°34'0 0.0
2015-Jul-01 12:23N 51°20' E 002°34'0 0.0
2015-Jul-01 11:32N 51°20' E 002°34'1 0.4
2015-Jul-01 09:32N 51°21' E 002°33'8 8.5
2015-Jul-01 08:34N 51°19' E 002°21'9 9.2
2015-Jul-01 07:34N 51°14' E 002°08'9 8.7
2015-Jul-01 06:34N 51°10' E 001°56'8 8.4
2015-Jul-01 05:34N 51°05' E 001°45'9 8.5
2015-Jul-01 04:33N 50°59' E 001°36'9 9.5
2015-Jul-01 03:34N 50°51' E 001°27'1110.7
2015-Jul-01 02:31N 50°41' E 001°21'6810.9
2015-Jun-30 20:14N 50°16' W 000°19'1113.1
2015-Jun-30 19:21N 50°12' W 000°36'1113.3
2015-Jun-30 18:33N 50°09' W 000°52'1313.1
2015-Jun-30 17:33N 50°06' W 001°12'1111.2
2015-Jun-30 16:33N 50°03' W 001°29'1210.7
2015-Jun-30 15:27N 50°01' W 001°47'10 9.5
2015-Jun-30 14:23N 49°59' W 002°02'7 8.5
2015-Jun-30 13:33N 49°57' W 002°13'8 8.1
2015-Jun-30 12:34N 49°55' W 002°25'9 8.2
2015-Jun-30 11:30N 49°53' W 002°38'9 9.1
2015-Jun-30 10:33N 49°51' W 002°51'10 9.9
2015-Jun-30 09:34N 49°50' W 003°06'1110.5
2015-Jun-30 08:33N 49°50' W 003°23'1210.8
2015-Jun-30 07:27N 49°50' W 003°41'1011.0
2015-Jun-30 06:31N 49°49' W 003°57'1111.3
2015-Jun-30 05:33N 49°49' W 004°14'1111.5
2015-Jun-30 04:33N 49°49' W 004°32'67 8.4
2015-Jun-29 20:32N 50°24' W 006°01'7410.5
2015-Jun-29 13:30N 51°37' W 005°60'3411.6
2015-Jun-29 10:33N 52°10' W 005°45'1111.5
2015-Jun-29 09:34N 52°21' W 005°37'91 9.6
2015-Jun-29 00:04N 53°34' W 004°08'612.1
2015-Jun-28 23:33N 53°34' W 003°58'1211.5
2015-Jun-28 22:33N 53°34' W 003°38'1111.0
2015-Jun-28 21:34N 53°32' W 003°20'4 3.5
2015-Jun-28 20:33N 53°31' W 003°14'8 7.6
2015-Jun-28 19:33N 53°28' W 003°03'4 3.7
2015-Jun-28 18:33N 53°24' W 003°01'0 0.0
2015-Jun-28 17:33N 53°24' W 003°01'1 1.2
2015-Jun-28 16:33N 53°25' W 003°03'0 0.0
2015-Jun-28 15:33N 53°25' W 003°03'0 0.0
2015-Jun-28 14:33N 53°25' W 003°03'0 0.0
2015-Jun-28 13:30N 53°25' W 003°03'0 0.0
2015-Jun-28 12:33N 53°25' W 003°03'0 0.0
2015-Jun-28 11:33N 53°25' W 003°03'0 0.0
2015-Jun-28 10:33N 53°25' W 003°03'0 0.0
2015-Jun-28 09:33N 53°25' W 003°03'0 0.0
2015-Jun-28 08:33N 53°25' W 003°03'0 0.0
2015-Jun-28 07:33N 53°25' W 003°03'0 0.0
2015-Jun-28 06:27N 53°25' W 003°03'  
Track history (hours):
 
Tides and Currents Weather Stations Pressure Air Temp Water Temp Dewpoint Dewpoint Depression Visibility Wind Speed Wind Dir Waves Ship Positions

Stolt Shearwater

Last reported at 2015-Jul-08 05:33 UTC. Time now 2015-Jul-08 06:31 UTC.
Position N 53°38' W 000°11'.

Length 96 m; draft 6.7 m.

Type: Ship (hazmat cat B). MMSI: 319402000.

Date/timePositionNaut miles runAvg speedWind from/ knotsBaromVisibWave heightAir tempDewpointWater temp
2015-Jul-08 05:33N 53°38' W 000°11'0 0.0
2015-Jul-08 04:33N 53°38' W 000°11'0 0.0
2015-Jul-08 03:33N 53°38' W 000°11'0 0.0
2015-Jul-08 02:33N 53°38' W 000°11'0 0.0
2015-Jul-08 01:33N 53°38' W 000°11'0 0.0
2015-Jul-08 00:33N 53°38' W 000°11'0 0.0
2015-Jul-07 23:33N 53°38' W 000°11'0 0.0
2015-Jul-07 22:33N 53°38' W 000°11'0 0.0
2015-Jul-07 21:27N 53°38' W 000°11'0 0.0
2015-Jul-07 20:33N 53°38' W 000°11'0 0.0
2015-Jul-07 19:30N 53°38' W 000°11'0 0.0
2015-Jul-07 18:33N 53°38' W 000°11'0 0.0
2015-Jul-07 17:33N 53°38' W 000°11'0 0.0
2015-Jul-07 16:33N 53°38' W 000°11'0 0.0
2015-Jul-07 15:33N 53°38' W 000°11'0 0.0
2015-Jul-07 14:33N 53°38' W 000°11'0 0.0
2015-Jul-07 13:33N 53°38' W 000°11'0 0.0
2015-Jul-07 12:33N 53°38' W 000°11'0 0.0
2015-Jul-07 11:33N 53°38' W 000°11'0 0.0
2015-Jul-07 10:33N 53°38' W 000°11'0 0.0
2015-Jul-07 09:33N 53°38' W 000°11'1 0.6
2015-Jul-07 08:33N 53°38' W 000°10'1111.5
2015-Jul-07 07:33N 53°34' E 000°07'7 7.5
2015-Jul-07 06:33N 53°33' E 000°20'6 5.8
2015-Jul-07 05:33N 53°31' E 000°29'38 7.7
2015-Jul-07 00:32N 53°08' E 001°20'9 8.8
2015-Jul-06 23:33N 53°01' E 001°30'8 8.1
2015-Jul-06 22:33N 52°55' E 001°39'8 8.1
2015-Jul-06 21:33N 52°50' E 001°49'9 9.4
2015-Jul-06 20:33N 52°45' E 002°02'1110.9
2015-Jul-06 19:33N 52°39' E 002°17'6810.7
2015-Jul-06 13:13N 52°03' E 003°52'6 9.8
2015-Jul-06 12:33N 52°00' E 004°01'8 1.9
2015-Jul-06 08:11N 51°56' E 004°12'0 0.0
2015-Jul-06 06:20N 51°56' E 004°12'0 0.0
2015-Jul-06 04:23N 51°56' E 004°12'0 0.0
2015-Jul-06 03:20N 51°56' E 004°12'0 0.0
2015-Jul-06 02:26N 51°56' E 004°12'0 0.0
2015-Jul-06 00:14N 51°56' E 004°12'0 0.0
2015-Jul-05 23:20N 51°56' E 004°12'0 0.0
2015-Jul-05 22:17N 51°56' E 004°12'0 0.0
2015-Jul-05 21:26N 51°56' E 004°12'0 0.0
2015-Jul-05 20:32N 51°56' E 004°12'0 0.0
2015-Jul-05 19:32N 51°56' E 004°12'0 0.0
2015-Jul-05 18:32N 51°56' E 004°12'0 0.0
2015-Jul-05 17:23N 51°56' E 004°12'0 0.0
2015-Jul-05 16:20N 51°56' E 004°12'0 0.0
2015-Jul-05 15:26N 51°56' E 004°12'0 0.0
2015-Jul-05 14:26N 51°56' E 004°12'0 0.0
2015-Jul-05 13:17N 51°56' E 004°12'0 0.0
2015-Jul-05 12:32N 51°56' E 004°12'0 0.0
2015-Jul-05 11:23N 51°56' E 004°12'0 0.2
2015-Jul-05 10:34N 51°56' E 004°12'9 8.8
2015-Jul-05 09:34N 51°60' E 003°59'9 9.1
2015-Jul-05 08:33N 51°58' E 003°45'5 4.5
2015-Jul-05 07:34N 51°57' E 003°38'5 4.7
2015-Jul-05 06:33N 51°55' E 003°31'4 3.6
2015-Jul-05 05:33N 51°56' E 003°25'4 4.4
2015-Jul-05 04:34N 51°56' E 003°17'6 5.6
2015-Jul-05 03:33N 51°54' E 003°09'6 5.7
2015-Jul-05 02:31N 51°54' E 002°59'9 9.3
2015-Jul-05 01:33N 51°51' E 002°45'1010.2
2015-Jul-05 00:33N 51°43' E 002°34'9 9.6
2015-Jul-04 23:33N 51°36' E 002°24'9 9.3
2015-Jul-04 22:33N 51°29' E 002°14'7 7.1
2015-Jul-04 21:33N 51°22' E 002°10'1111.3
2015-Jul-04 20:33N 51°23' E 002°28'1111.2
2015-Jul-04 19:32N 51°22' E 002°46'2210.9
2015-Jul-04 17:30N 51°25' E 003°21'9 9.7
2015-Jul-04 16:33N 51°26' E 003°36'12 9.2
2015-Jul-04 15:14N 51°22' E 003°54'5 7.6
2015-Jul-04 14:33N 51°26' E 003°58'8 6.3
2015-Jul-04 13:21N 51°23' E 004°10'6 7.2
2015-Jul-04 12:33N 51°19' E 004°16'3 3.3
2015-Jul-04 11:34N 51°16' E 004°17'1 0.8
2015-Jul-04 10:33N 51°16' E 004°15'0 0.0
2015-Jul-04 09:28N 51°16' E 004°15'0 0.0
2015-Jul-04 08:30N 51°16' E 004°15'0 0.0
2015-Jul-04 07:33N 51°16' E 004°15'0 0.0
2015-Jul-04 06:33N 51°16' E 004°15'0 0.0
2015-Jul-04 05:33N 51°16' E 004°15'0 0.0
2015-Jul-04 04:33N 51°16' E 004°15'0 0.1
2015-Jul-04 03:33N 51°16' E 004°15'0 0.0
2015-Jul-04 02:30N 51°16' E 004°15'0 0.0
2015-Jul-04 01:30N 51°16' E 004°15'0 0.0
2015-Jul-04 00:34N 51°16' E 004°15'0 0.0
2015-Jul-03 23:27N 51°16' E 004°15'0 0.0
2015-Jul-03 22:30N 51°16' E 004°15'0 0.0
2015-Jul-03 21:34N 51°16' E 004°15'0 0.0
2015-Jul-03 20:33N 51°16' E 004°15'0 0.0
2015-Jul-03 19:30N 51°16' E 004°15'0 0.0
2015-Jul-03 18:33N 51°16' E 004°15'0 0.0
2015-Jul-03 17:30N 51°16' E 004°15'0 0.0
2015-Jul-03 16:33N 51°16' E 004°15'0 0.0
2015-Jul-03 15:33N 51°16' E 004°15'0 0.0
2015-Jul-03 14:33N 51°16' E 004°15'1 0.8
2015-Jul-03 13:33N 51°16' E 004°17'2 1.7
2015-Jul-03 12:33N 51°17' E 004°19'1 0.6
2015-Jul-03 11:34N 51°17' E 004°20'2 1.8
2015-Jul-03 10:31N 51°15' E 004°21'0 0.0
2015-Jul-03 09:28N 51°15' E 004°21'0 0.0
2015-Jul-03 08:31N 51°15' E 004°21'0 0.0
2015-Jul-03 07:31N 51°15' E 004°21'0 0.0
2015-Jul-03 06:25N 51°15' E 004°21'0 0.0
2015-Jul-03 05:31N 51°15' E 004°21'0 0.0
2015-Jul-03 04:31N 51°15' E 004°21'0 0.0
2015-Jul-03 03:31N 51°15' E 004°21'0 0.0
2015-Jul-03 02:31N 51°15' E 004°21'0 0.0
2015-Jul-03 01:31N 51°15' E 004°21'0 0.0
2015-Jul-03 00:31N 51°15' E 004°21'0 0.0
2015-Jul-02 23:31N 51°15' E 004°21'0 0.0
2015-Jul-02 22:31N 51°15' E 004°21'0 0.0
2015-Jul-02 21:28N 51°15' E 004°21'0 0.0
2015-Jul-02 20:31N 51°15' E 004°21'0 0.0
2015-Jul-02 19:32N 51°15' E 004°21'0 0.3
2015-Jul-02 18:33N 51°15' E 004°22'6 6.3
2015-Jul-02 17:33N 51°21' E 004°17'0 0.4
2015-Jul-02 16:33N 51°21' E 004°16'6 5.9
2015-Jul-02 15:33N 51°22' E 004°07'7 6.5
2015-Jul-02 14:33N 51°23' E 003°57'10 9.8
2015-Jul-02 13:34N 51°24' E 003°41'1211.7
2015-Jul-02 12:33N 51°24' E 003°23'1313.2
2015-Jul-02 11:34N 51°24' E 003°01'1211.5
2015-Jul-02 10:34N 51°22' E 002°43'6 5.0
2015-Jul-02 09:24N 51°20' E 002°34'0 0.0
2015-Jul-02 08:15N 51°20' E 002°34'0 0.0
2015-Jul-02 07:24N 51°20' E 002°34'0 0.3
2015-Jul-02 06:29N 51°20' E 002°34'0 0.1
2015-Jul-02 05:17N 51°20' E 002°34'0 0.1
2015-Jul-02 04:32N 51°20' E 002°34'0 0.0
2015-Jul-02 03:20N 51°20' E 002°34'0 0.0
2015-Jul-02 02:29N 51°20' E 002°34'0 0.0
2015-Jul-02 00:29N 51°20' E 002°34'0 0.0
2015-Jul-01 23:23N 51°20' E 002°35'0 0.0
2015-Jul-01 22:29N 51°20' E 002°34'0 0.1
2015-Jul-01 21:11N 51°20' E 002°34'0 0.0
2015-Jul-01 20:29N 51°20' E 002°34'0 0.0
2015-Jul-01 19:20N 51°20' E 002°34'0 0.0
2015-Jul-01 18:29N 51°20' E 002°34'0 0.0
2015-Jul-01 17:32N 51°20' E 002°34'0 0.0
2015-Jul-01 16:23N 51°20' E 002°34'0 0.1
2015-Jul-01 15:26N 51°20' E 002°34'0 0.1
2015-Jul-01 14:29N 51°20' E 002°34'0 0.0
2015-Jul-01 13:29N 51°20' E 002°34'0 0.0
2015-Jul-01 12:23N 51°20' E 002°34'0 0.0
2015-Jul-01 11:32N 51°20' E 002°34'1 0.4
2015-Jul-01 09:32N 51°21' E 002°33'8 8.5
2015-Jul-01 08:34N 51°19' E 002°21'9 9.2
2015-Jul-01 07:34N 51°14' E 002°08'9 8.7
2015-Jul-01 06:34N 51°10' E 001°56'8 8.4
2015-Jul-01 05:34N 51°05' E 001°45'9 8.5
2015-Jul-01 04:33N 50°59' E 001°36'9 9.5
2015-Jul-01 03:34N 50°51' E 001°27'1110.7
2015-Jul-01 02:31N 50°41' E 001°21'6810.9
2015-Jun-30 20:14N 50°16' W 000°19'1113.1
2015-Jun-30 19:21N 50°12' W 000°36'1113.3
2015-Jun-30 18:33N 50°09' W 000°52'1313.1
2015-Jun-30 17:33N 50°06' W 001°12'1111.2
2015-Jun-30 16:33N 50°03' W 001°29'1210.7
2015-Jun-30 15:27N 50°01' W 001°47'10 9.5
2015-Jun-30 14:23N 49°59' W 002°02'7 8.5
2015-Jun-30 13:33N 49°57' W 002°13'8 8.1
2015-Jun-30 12:34N 49°55' W 002°25'9 8.2
2015-Jun-30 11:30N 49°53' W 002°38'9 9.1
2015-Jun-30 10:33N 49°51' W 002°51'10 9.9
2015-Jun-30 09:34N 49°50' W 003°06'1110.5
2015-Jun-30 08:33N 49°50' W 003°23'1210.8
2015-Jun-30 07:27N 49°50' W 003°41'1011.0
2015-Jun-30 06:31N 49°49' W 003°57'1111.3
2015-Jun-30 05:33N 49°49' W 004°14'1111.5
2015-Jun-30 04:33N 49°49' W 004°32'67 8.4
2015-Jun-29 20:32N 50°24' W 006°01'7410.5
2015-Jun-29 13:30N 51°37' W 005°60'3411.6
2015-Jun-29 10:33N 52°10' W 005°45'1111.5
2015-Jun-29 09:34N 52°21' W 005°37'91 9.6
2015-Jun-29 00:04N 53°34' W 004°08'612.1
2015-Jun-28 23:33N 53°34' W 003°58'1211.5
2015-Jun-28 22:33N 53°34' W 003°38'1111.0
2015-Jun-28 21:34N 53°32' W 003°20'4 3.5
2015-Jun-28 20:33N 53°31' W 003°14'8 7.6
2015-Jun-28 19:33N 53°28' W 003°03'4 3.7
2015-Jun-28 18:33N 53°24' W 003°01'0 0.0
2015-Jun-28 17:33N 53°24' W 003°01'1 1.2
2015-Jun-28 16:33N 53°25' W 003°03'0 0.0
2015-Jun-28 15:33N 53°25' W 003°03'0 0.0
2015-Jun-28 14:33N 53°25' W 003°03'0 0.0
2015-Jun-28 13:30N 53°25' W 003°03'0 0.0
2015-Jun-28 12:33N 53°25' W 003°03'0 0.0
2015-Jun-28 11:33N 53°25' W 003°03'0 0.0
2015-Jun-28 10:33N 53°25' W 003°03'0 0.0
2015-Jun-28 09:33N 53°25' W 003°03'0 0.0
2015-Jun-28 08:33N 53°25' W 003°03'0 0.0
2015-Jun-28 07:33N 53°25' W 003°03'0 0.0
2015-Jun-28 06:27N 53°25' W 003°03'  

Dump ship's entire track history